Skip Navigation Links
NOAA logo - Click to go to the NOAA homepage
NOAA's National Weather Service
Alaska Aviation Weather Unit
  NWS logo - Click to go to the NWS homepage
Left Navbar Graphic     02 AKDT = 10 GMT

   
NOAA is celebrating 200 years of science, service, and stewardship. Visit the NOAA 200th celebration Web site to learn more.
USA.gov is the U.S. Government's official Web portal to all Federal, state and local government Web resources and services.
Facebook
NWS on Facebook

AAWU Home :: Display TAF Add Bookmark
TAF PAGA 270520Z 2706/2806 01004KT P6SM SKC=
METAR PAGA 270457Z AUTO 01006KT 10SM CLR M08/M17 A2989=

METAR PAGA 270557Z AUTO 01005KT 10SM CLR M10/M18 A2988=

METAR PAGA 270657Z AUTO 36006KT 10SM CLR M11/M18 A2987=

METAR PAGA 270757Z AUTO 01005KT 10SM CLR M12/M18 A2987=

METAR PAGA 270857Z AUTO 01005KT 10SM CLR M14/M19 A2987=

METAR PAGA 270957Z AUTO 02003KT 10SM CLR M15/M20 A2986=


NOAA's National Weather Service
Alaska Aviation Weather Unit
6930 Sand Lake Road
Anchorage, AK 99502-1845
Disclaimer
Credits
Glossary
Privacy Policy
About Us
Career Opportunities
Contact AAWU Internet Services Site last modified: April, 17th 2012